Terminal Aerodrome Forecast
Issued by NWS Cleveland, OH

Home | Current Version | Previous Version | Graphics & Text | Print | Product List | Glossary On
Versions: 1 2 3 4 5 6 7 8 9 10 11 12 13 14 15 16 17 18 19 20 21 22 23 24
000
FTUS41 KCLE 240300 AAA
TAFCLE
TAF AMD
KCLE 240317Z 2403/2506 15005KT P6SM SCT025 OVC060
     FM240600 15007KT 5SM -RA BR SCT007 OVC015
     FM241100 15012KT 6SM BR BKN007 OVC015
     FM241900 17015G25KT P6SM -SHRA OVC025
     FM242300 22025G40KT P6SM OVC025=

USA.gov is the U.S. government's official web portal to all federal, state and local government web resources and services.